Time;durP1;ratioP1;P1;durP2;ratioP2;P2;SDS_P1;SDS_P2;PMS_P1;PMS_P2;Temp;Humidity;BMP_temperature;BMP_pressure;BME280_temperature;BME280_humidity;BME280_pressure;Samples;Min_cycle;Max_cycle;Signal;HPM_P1;HPM_P2
2023/12/13 00:00:15;;;;;;;7.70;6.73;;;;;;;6.02;100.00;98527.34;5061794;28;20195;-68
2023/12/13 00:02:41;;;;;;;7.87;7.00;;;;;;;6.09;100.00;98526.06;5067642;28;20181;-68
2023/12/13 00:05:06;;;;;;;7.23;6.53;;;;;;;6.13;100.00;98524.13;5051537;28;20204;-68
2023/12/13 00:07:32;;;;;;;6.67;5.83;;;;;;;6.08;100.00;98521.03;5070956;28;20256;-68
2023/12/13 00:09:57;;;;;;;6.63;5.93;;;;;;;6.09;100.00;98512.44;5055620;28;20695;-68
2023/12/13 00:12:22;;;;;;;6.87;5.83;;;;;;;6.00;100.00;98510.47;5057215;28;20239;-67
2023/12/13 00:14:47;;;;;;;8.63;6.40;;;;;;;5.85;100.00;98512.19;5062285;28;20196;-68
2023/12/13 00:17:14;;;;;;;6.50;5.80;;;;;;;5.74;100.00;98515.38;5060888;28;20266;-68
2023/12/13 00:19:40;;;;;;;7.47;6.43;;;;;;;5.49;100.00;98504.09;5059427;28;20242;-68
2023/12/13 00:22:05;;;;;;;7.77;5.87;;;;;;;5.22;100.00;98509.91;5067427;28;20326;-68
2023/12/13 00:24:30;;;;;;;7.60;5.83;;;;;;;5.35;100.00;98507.47;5059298;28;20264;-68
2023/12/13 00:26:55;;;;;;;8.83;6.50;;;;;;;5.38;100.00;98498.81;5061196;28;20185;-68
2023/12/13 00:29:21;;;;;;;7.60;6.07;;;;;;;5.31;100.00;98506.00;5058951;28;20181;-68
2023/12/13 00:31:46;;;;;;;7.87;5.90;;;;;;;5.06;100.00;98496.41;5036142;28;20248;-68
2023/12/13 00:34:11;;;;;;;7.30;6.10;;;;;;;5.06;100.00;98493.84;5057204;28;20173;-68
2023/12/13 00:36:37;;;;;;;8.43;6.70;;;;;;;5.13;100.00;98502.78;5055873;28;20230;-68
2023/12/13 00:39:03;;;;;;;6.67;5.70;;;;;;;5.11;100.00;98502.88;5058154;28;20708;-68
2023/12/13 00:41:28;;;;;;;7.73;5.60;;;;;;;5.08;100.00;98514.97;5055469;28;20257;-69
2023/12/13 00:43:53;;;;;;;8.07;6.00;;;;;;;4.90;100.00;98522.75;5062219;28;20180;-69
2023/12/13 00:46:22;;;;;;;9.40;6.63;;;;;;;4.96;100.00;98527.53;5062436;28;20603;-68
2023/12/13 00:48:50;;;;;;;12.57;6.63;;;;;;;5.11;100.00;98520.72;5057937;28;20185;-68
2023/12/13 00:51:17;;;;;;;14.33;7.07;;;;;;;5.19;100.00;98519.47;5055235;28;20232;-69
2023/12/13 00:53:42;;;;;;;26.60;7.43;;;;;;;4.98;100.00;98518.03;5063418;28;20650;-68
2023/12/13 00:56:08;;;;;;;18.70;7.40;;;;;;;4.93;100.00;98509.03;5071056;28;20180;-67
2023/12/13 00:58:33;;;;;;;16.60;6.53;;;;;;;4.79;100.00;98507.28;5069779;28;20593;-68
2023/12/13 01:01:00;;;;;;;9.93;6.33;;;;;;;4.84;100.00;98502.72;5067157;28;20698;-67
2023/12/13 01:03:26;;;;;;;13.53;7.00;;;;;;;4.72;100.00;98511.88;5049368;28;20277;-68
2023/12/13 01:05:51;;;;;;;16.93;5.93;;;;;;;4.71;100.00;98506.88;5055973;28;20271;-67
2023/12/13 01:08:17;;;;;;;10.77;6.40;;;;;;;4.93;100.00;98509.84;5056921;28;20185;-68
2023/12/13 01:10:43;;;;;;;39.20;7.53;;;;;;;4.81;100.00;98510.53;5065599;28;20236;-67
2023/12/13 01:13:08;;;;;;;40.70;8.40;;;;;;;4.79;100.00;98513.16;5080382;28;20196;-68
2023/12/13 01:15:33;;;;;;;31.03;6.83;;;;;;;4.83;100.00;98516.38;5043700;28;20281;-67
2023/12/13 01:17:58;;;;;;;13.60;6.53;;;;;;;5.00;100.00;98517.97;5069769;28;20184;-68
2023/12/13 01:20:24;;;;;;;31.60;7.33;;;;;;;5.04;100.00;98519.44;5063986;27;20547;-67
2023/12/13 01:22:49;;;;;;;21.47;5.97;;;;;;;5.09;100.00;98519.97;5086859;28;20542;-68
2023/12/13 01:25:14;;;;;;;25.73;6.10;;;;;;;5.10;100.00;98523.38;5073852;28;20237;-67
2023/12/13 01:27:40;;;;;;;37.63;7.30;;;;;;;5.22;100.00;98535.41;5073998;28;20264;-67
2023/12/13 01:30:08;;;;;;;55.50;8.27;;;;;;;5.12;100.00;98531.72;5063652;27;20500;-67
2023/12/13 01:32:33;;;;;;;28.60;5.83;;;;;;;5.21;100.00;98528.66;5072433;28;20221;-68
2023/12/13 01:34:59;;;;;;;101.23;8.50;;;;;;;5.04;100.00;98537.28;5074291;28;20291;-67
2023/12/13 01:37:24;;;;;;;46.17;6.67;;;;;;;5.22;100.00;98544.78;5072952;28;20277;-68
2023/12/13 01:39:49;;;;;;;16.73;5.53;;;;;;;5.15;100.00;98549.41;5073593;28;20203;-68
2023/12/13 01:42:14;;;;;;;32.80;6.33;;;;;;;5.10;100.00;98542.00;5076438;28;20217;-66
2023/12/13 01:44:40;;;;;;;28.93;7.03;;;;;;;5.23;100.00;98544.66;5073041;28;20181;-67
2023/12/13 01:47:05;;;;;;;40.93;6.17;;;;;;;5.34;100.00;98546.63;5072294;28;20201;-67
2023/12/13 01:49:30;;;;;;;44.70;7.67;;;;;;;5.42;100.00;98543.59;5071783;28;20212;-67
2023/12/13 01:51:56;;;;;;;35.03;7.70;;;;;;;5.54;100.00;98544.63;5066048;28;20231;-67
2023/12/13 01:54:21;;;;;;;38.17;7.10;;;;;;;5.59;100.00;98533.22;5053008;28;20605;-68
2023/12/13 01:56:48;;;;;;;52.43;7.07;;;;;;;5.59;100.00;98534.97;5054245;28;20192;-68
2023/12/13 01:59:14;;;;;;;62.23;7.43;;;;;;;5.53;100.00;98535.34;5053499;28;20171;-68
2023/12/13 02:01:40;;;;;;;61.90;8.87;;;;;;;5.40;100.00;98527.59;5056462;28;20291;-68
2023/12/13 02:04:06;;;;;;;68.07;6.90;;;;;;;5.14;100.00;98533.28;5053414;28;20640;-68
2023/12/13 02:06:31;;;;;;;49.90;6.47;;;;;;;5.08;100.00;98531.06;5054165;28;20228;-68
2023/12/13 02:08:56;;;;;;;86.63;6.50;;;;;;;5.09;100.00;98526.81;5055183;28;20260;-68
2023/12/13 02:11:21;;;;;;;55.50;6.20;;;;;;;5.13;100.00;98525.72;5053741;28;20231;-68
2023/12/13 02:13:47;;;;;;;86.83;6.60;;;;;;;5.14;100.00;98528.19;5059958;28;20182;-68
2023/12/13 02:16:13;;;;;;;20.30;5.40;;;;;;;5.11;100.00;98515.63;5053715;28;20181;-68
2023/12/13 02:18:38;;;;;;;23.17;5.33;;;;;;;4.86;100.00;98513.63;5054669;28;20217;-68
2023/12/13 02:21:05;;;;;;;38.40;6.70;;;;;;;4.76;100.00;98517.63;5052224;28;20236;-68
2023/12/13 02:23:30;;;;;;;37.57;5.50;;;;;;;4.77;100.00;98520.06;5052983;28;20183;-67
2023/12/13 02:26:05;;;;;;;31.13;4.90;;;;;;;4.91;100.00;98514.22;5054752;28;20721;-67
2023/12/13 02:28:31;;;;;;;39.57;5.50;;;;;;;4.98;100.00;98515.50;5053810;28;20188;-67
2023/12/13 02:30:57;;;;;;;13.40;3.70;;;;;;;4.79;100.00;98510.63;5051220;28;20610;-67
2023/12/13 02:33:24;;;;;;;21.13;6.27;;;;;;;4.91;100.00;98524.41;5052005;28;20184;-68
2023/12/13 02:35:50;;;;;;;15.93;4.60;;;;;;;4.84;100.00;98516.28;5054948;28;20196;-68
2023/12/13 02:38:15;;;;;;;20.30;4.97;;;;;;;4.80;100.00;98514.81;5039777;28;20546;-67
2023/12/13 02:40:41;;;;;;;5.77;3.90;;;;;;;4.59;100.00;98514.28;5049005;28;20230;-68
2023/12/13 02:43:06;;;;;;;10.17;4.87;;;;;;;4.66;100.00;98515.59;5063002;28;20176;-68
2023/12/13 02:45:31;;;;;;;12.10;4.80;;;;;;;4.87;100.00;98512.72;5055099;28;20200;-68
2023/12/13 02:47:59;;;;;;;10.60;4.67;;;;;;;4.93;100.00;98509.03;5054252;28;20203;-68
2023/12/13 02:50:25;;;;;;;5.50;4.70;;;;;;;4.98;100.00;98512.94;5046482;28;20292;-69
2023/12/13 02:52:50;;;;;;;4.93;4.43;;;;;;;4.94;100.00;98508.13;5071995;28;20180;-67
2023/12/13 02:55:15;;;;;;;6.97;4.53;;;;;;;4.94;100.00;98505.56;5059780;28;20284;-67
2023/12/13 02:57:41;;;;;;;6.33;4.73;;;;;;;4.81;100.00;98500.34;5066716;28;20264;-67
2023/12/13 03:00:07;;;;;;;5.27;4.17;;;;;;;4.73;100.00;98497.41;5044136;28;20181;-66
2023/12/13 03:02:32;;;;;;;4.10;3.70;;;;;;;4.81;100.00;98498.63;5067406;28;20310;-68
2023/12/13 03:04:59;;;;;;;5.10;4.60;;;;;;;4.63;100.00;98486.94;5053355;28;20227;-68
2023/12/13 03:07:24;;;;;;;4.53;4.13;;;;;;;4.43;100.00;98493.94;5052037;28;20184;-68
2023/12/13 03:09:50;;;;;;;5.63;4.10;;;;;;;4.57;100.00;98490.63;5053584;28;20184;-68
2023/12/13 03:12:15;;;;;;;5.10;4.53;;;;;;;4.57;100.00;98482.97;5058585;28;20692;-67
2023/12/13 03:14:40;;;;;;;8.80;4.30;;;;;;;4.59;100.00;98478.63;5053437;28;20226;-67
2023/12/13 03:17:06;;;;;;;5.17;4.20;;;;;;;4.58;100.00;98474.44;5051454;28;20176;-67
2023/12/13 03:19:31;;;;;;;5.00;4.10;;;;;;;4.67;100.00;98473.09;5053251;28;20315;-68
2023/12/13 03:21:56;;;;;;;5.13;3.63;;;;;;;4.78;100.00;98470.75;5057548;28;20223;-68
2023/12/13 03:24:22;;;;;;;4.43;3.40;;;;;;;4.78;100.00;98469.97;5053445;28;20180;-68
2023/12/13 03:26:47;;;;;;;4.23;3.50;;;;;;;4.88;100.00;98458.31;5070565;28;20507;-68
2023/12/13 03:29:12;;;;;;;4.13;3.57;;;;;;;4.86;100.00;98460.13;5072407;28;20191;-67
2023/12/13 03:31:37;;;;;;;3.80;3.40;;;;;;;4.64;100.00;98463.91;5073500;28;20272;-68
2023/12/13 03:34:03;;;;;;;3.63;3.33;;;;;;;4.83;100.00;98463.69;5075241;28;20202;-68
2023/12/13 03:36:28;;;;;;;2.90;2.67;;;;;;;4.94;100.00;98468.16;5070094;28;20651;-68
2023/12/13 03:38:53;;;;;;;3.50;3.20;;;;;;;4.79;100.00;98463.97;5071934;28;20204;-68
2023/12/13 03:41:19;;;;;;;3.90;3.60;;;;;;;4.83;100.00;98468.78;5070614;28;20654;-69
2023/12/13 03:43:44;;;;;;;4.50;3.03;;;;;;;4.85;100.00;98468.72;5073648;28;20607;-68
2023/12/13 03:46:10;;;;;;;3.70;3.30;;;;;;;4.75;100.00;98458.22;5070771;28;20689;-67
2023/12/13 03:48:35;;;;;;;4.60;3.77;;;;;;;4.57;100.00;98457.53;5070964;28;20185;-67
2023/12/13 03:51:01;;;;;;;3.43;3.13;;;;;;;4.55;100.00;98455.97;5063844;28;20333;-67
2023/12/13 03:53:27;;;;;;;3.83;3.20;;;;;;;4.62;100.00;98462.34;5062169;28;20287;-67
2023/12/13 03:55:52;;;;;;;3.60;3.30;;;;;;;4.58;100.00;98453.25;5070061;28;20189;-67
2023/12/13 03:58:18;;;;;;;3.53;3.23;;;;;;;4.77;100.00;98460.66;5071429;28;20184;-68
2023/12/13 04:00:43;;;;;;;3.33;3.03;;;;;;;4.91;100.00;98462.41;5066327;28;20313;-68
2023/12/13 04:03:08;;;;;;;5.53;3.37;;;;;;;4.98;100.00;98456.88;5082213;28;20545;-67
2023/12/13 04:05:33;;;;;;;4.20;3.20;;;;;;;4.85;100.00;98453.41;5067131;28;20189;-67
2023/12/13 04:07:59;;;;;;;3.43;3.10;;;;;;;4.75;100.00;98455.66;5051672;28;20238;-68
2023/12/13 04:10:26;;;;;;;7.53;3.80;;;;;;;4.90;100.00;98442.94;5048598;27;20700;-67
2023/12/13 04:12:51;;;;;;;3.67;3.07;;;;;;;5.10;100.00;98440.06;5084415;28;20647;-67
2023/12/13 04:15:16;;;;;;;7.50;3.80;;;;;;;5.13;100.00;98437.31;5071186;28;20188;-67
2023/12/13 04:17:41;;;;;;;3.53;3.10;;;;;;;5.04;100.00;98437.88;5070975;28;20176;-67
2023/12/13 04:20:07;;;;;;;4.63;3.50;;;;;;;5.15;100.00;98442.34;5061271;28;20216;-66
2023/12/13 04:22:33;;;;;;;4.40;4.00;;;;;;;5.06;100.00;98442.88;5070167;28;20564;-67
2023/12/13 04:24:58;;;;;;;3.67;3.33;;;;;;;5.19;100.00;98435.34;5066380;28;20645;-68
2023/12/13 04:27:23;;;;;;;3.50;3.20;;;;;;;5.23;100.00;98436.78;5062312;28;20212;-67
2023/12/13 04:29:48;;;;;;;5.53;3.30;;;;;;;5.19;100.00;98435.34;5070841;28;20180;-68
2023/12/13 04:32:14;;;;;;;5.70;3.57;;;;;;;5.17;100.00;98438.81;5055904;27;20234;-68
2023/12/13 04:34:39;;;;;;;4.67;3.53;;;;;;;5.05;100.00;98444.63;5070505;28;20233;-67
2023/12/13 04:37:04;;;;;;;4.10;3.33;;;;;;;5.07;100.00;98442.78;5070993;28;20264;-67
2023/12/13 04:39:30;;;;;;;3.53;3.20;;;;;;;5.15;100.00;98442.34;5066093;28;20197;-67
2023/12/13 04:41:55;;;;;;;4.57;3.70;;;;;;;5.13;100.00;98433.97;5042904;28;20251;-67
2023/12/13 04:44:20;;;;;;;4.40;3.63;;;;;;;5.07;100.00;98431.78;5069631;28;20620;-67
2023/12/13 04:46:46;;;;;;;5.03;3.47;;;;;;;5.04;100.00;98429.41;5059534;28;20220;-67
2023/12/13 04:49:11;;;;;;;7.73;3.60;;;;;;;5.00;100.00;98424.50;5068588;28;20627;-67
2023/12/13 04:51:36;;;;;;;6.13;3.93;;;;;;;4.94;100.00;98426.59;5062577;28;20236;-67
2023/12/13 04:54:01;;;;;;;5.93;3.60;;;;;;;4.85;100.00;98416.00;5070729;28;20176;-67
2023/12/13 04:56:27;;;;;;;7.80;3.93;;;;;;;4.83;100.00;98425.47;5073333;28;20196;-67
2023/12/13 04:58:53;;;;;;;3.90;3.47;;;;;;;4.80;100.00;98418.00;5072849;28;20704;-67
2023/12/13 05:01:18;;;;;;;5.87;3.63;;;;;;;4.69;100.00;98413.53;5047390;28;20232;-67
2023/12/13 05:03:43;;;;;;;6.17;4.30;;;;;;;4.76;100.00;98415.72;5061171;28;20199;-67
2023/12/13 05:06:09;;;;;;;6.53;4.03;;;;;;;4.48;100.00;98413.03;5055304;28;20247;-67
2023/12/13 05:08:34;;;;;;;4.97;3.90;;;;;;;4.41;100.00;98408.38;5054639;28;20185;-67
2023/12/13 05:10:59;;;;;;;7.73;4.00;;;;;;;4.36;100.00;98406.88;5052498;28;20227;-67
2023/12/13 05:13:28;;;;;;;8.67;4.00;;;;;;;4.30;100.00;98408.97;5063043;28;20332;-68
2023/12/13 05:15:53;;;;;;;8.97;4.47;;;;;;;4.31;100.00;98421.59;5063214;28;20211;-68
2023/12/13 05:18:18;;;;;;;11.83;4.57;;;;;;;4.16;100.00;98422.47;5060713;28;21406;-67
2023/12/13 05:20:45;;;;;;;5.20;4.70;;;;;;;4.30;100.00;98419.94;5066180;28;20781;-67
2023/12/13 05:23:11;;;;;;;7.50;4.37;;;;;;;4.35;100.00;98420.53;5063661;28;20249;-67
2023/12/13 05:25:37;;;;;;;9.73;5.03;;;;;;;4.24;100.00;98424.56;5055199;28;20628;-67
2023/12/13 05:28:03;;;;;;;8.67;5.03;;;;;;;4.41;100.00;98421.09;5054475;28;20249;-67
2023/12/13 05:30:28;;;;;;;11.13;4.90;;;;;;;4.45;100.00;98422.56;5048339;28;20221;-67
2023/12/13 05:32:53;;;;;;;5.90;4.13;;;;;;;4.35;100.00;98423.09;5066926;28;20183;-67
2023/12/13 05:35:19;;;;;;;8.50;4.57;;;;;;;4.61;100.00;98432.69;5054769;28;20580;-67
2023/12/13 05:37:44;;;;;;;8.47;4.80;;;;;;;4.68;100.00;98419.53;5067845;28;20252;-67
2023/12/13 05:40:10;;;;;;;8.93;4.83;;;;;;;4.64;100.00;98418.06;5045488;28;20729;-66
2023/12/13 05:42:35;;;;;;;6.27;4.10;;;;;;;4.61;100.00;98414.88;5053042;28;20184;-68
2023/12/13 05:45:00;;;;;;;7.27;4.90;;;;;;;4.55;100.00;98410.94;5054772;28;20177;-67
2023/12/13 05:47:26;;;;;;;9.10;5.13;;;;;;;4.46;100.00;98402.09;5054151;28;20205;-67
2023/12/13 05:49:51;;;;;;;6.87;4.27;;;;;;;4.27;100.00;98409.97;5054941;28;20603;-67
2023/12/13 05:52:18;;;;;;;8.77;4.93;;;;;;;4.30;100.00;98404.69;5059208;28;20647;-67
2023/12/13 05:54:43;;;;;;;7.30;5.23;;;;;;;4.40;100.00;98404.19;5053218;28;20229;-67
2023/12/13 05:57:08;;;;;;;7.80;5.20;;;;;;;4.42;100.00;98392.19;5055202;28;20196;-67
2023/12/13 05:59:34;;;;;;;6.33;4.70;;;;;;;4.58;100.00;98408.22;5073155;28;20185;-67
2023/12/13 06:01:59;;;;;;;5.70;5.13;;;;;;;4.40;100.00;98406.72;5078297;28;20643;-68
2023/12/13 06:04:24;;;;;;;11.13;5.47;;;;;;;4.37;100.00;98407.72;5060679;28;20184;-68
2023/12/13 06:06:50;;;;;;;11.27;6.50;;;;;;;4.62;100.00;98408.88;5057103;28;20207;-68
2023/12/13 06:09:15;;;;;;;12.37;6.40;;;;;;;4.71;100.00;98402.44;5059784;28;20191;-67
2023/12/13 06:11:40;;;;;;;9.40;5.43;;;;;;;4.77;100.00;98407.97;5049669;28;20217;-68
2023/12/13 06:14:06;;;;;;;8.30;4.87;;;;;;;4.82;100.00;98403.44;5057114;28;20187;-68
2023/12/13 06:16:31;;;;;;;4.83;4.27;;;;;;;4.96;100.00;98405.19;5054220;28;20220;-68
2023/12/13 06:18:57;;;;;;;7.27;5.10;;;;;;;5.07;100.00;98404.53;5054253;28;20689;-68
2023/12/13 06:21:22;;;;;;;9.43;5.03;;;;;;;5.13;100.00;98399.09;5054035;28;20690;-68
2023/12/13 06:23:47;;;;;;;9.37;5.03;;;;;;;5.12;100.00;98404.28;5063090;28;20182;-67
2023/12/13 06:26:13;;;;;;;9.27;4.97;;;;;;;5.24;100.00;98395.91;5058346;28;20215;-68
2023/12/13 06:28:38;;;;;;;12.10;5.20;;;;;;;5.32;100.00;98398.00;5059579;28;20211;-68
2023/12/13 06:31:04;;;;;;;9.50;5.53;;;;;;;5.27;100.00;98400.84;5054842;28;20685;-68
2023/12/13 06:33:29;;;;;;;7.70;5.57;;;;;;;5.39;100.00;98395.91;5064075;28;20181;-69
2023/12/13 06:35:55;;;;;;;10.53;5.50;;;;;;;5.53;100.00;98389.97;5055760;28;20497;-68
2023/12/13 06:38:20;;;;;;;6.50;4.80;;;;;;;5.55;100.00;98394.06;5068401;28;20710;-68
2023/12/13 06:40:46;;;;;;;7.53;4.70;;;;;;;5.47;100.00;98389.44;5051163;28;20318;-68
2023/12/13 06:43:11;;;;;;;7.53;4.90;;;;;;;5.43;100.00;98395.63;5069615;28;20259;-68
2023/12/13 06:45:36;;;;;;;7.70;4.90;;;;;;;5.47;100.00;98391.97;5072011;28;20200;-68
2023/12/13 06:48:02;;;;;;;7.60;5.40;;;;;;;5.56;100.00;98382.94;5072008;28;20235;-68
2023/12/13 06:50:28;;;;;;;7.93;5.23;;;;;;;5.59;100.00;98387.03;5058702;28;20269;-66
2023/12/13 06:52:54;;;;;;;10.07;5.47;;;;;;;5.53;100.00;98385.66;5069803;28;20437;-67
2023/12/13 06:55:19;;;;;;;8.83;5.67;;;;;;;5.50;100.00;98380.78;5061868;28;20216;-65
2023/12/13 06:57:45;;;;;;;7.97;5.93;;;;;;;5.46;100.00;98380.13;5063985;28;20259;-68
2023/12/13 07:00:11;;;;;;;7.77;5.60;;;;;;;5.55;100.00;98377.94;5054240;28;20656;-66
2023/12/13 07:02:36;;;;;;;9.83;5.57;;;;;;;5.55;100.00;98380.50;5066714;28;20213;-69
2023/12/13 07:05:02;;;;;;;9.73;5.77;;;;;;;5.43;100.00;98374.41;5063108;28;20189;-69
2023/12/13 07:07:27;;;;;;;9.90;6.50;;;;;;;5.38;100.00;98374.66;5068972;28;20204;-69
2023/12/13 07:09:53;;;;;;;9.47;5.83;;;;;;;5.42;100.00;98378.69;5065525;28;20209;-70
2023/12/13 07:12:20;;;;;;;6.37;5.77;;;;;;;5.50;100.00;98373.91;5074807;27;20227;-71
2023/12/13 07:14:45;;;;;;;8.53;5.80;;;;;;;5.56;100.00;98372.75;5056402;28;20189;-71
2023/12/13 07:17:11;;;;;;;6.80;4.80;;;;;;;5.48;100.00;98380.88;5058351;28;20188;-63
2023/12/13 07:19:36;;;;;;;6.20;5.60;;;;;;;5.44;100.00;98381.16;5052607;28;20286;-66
2023/12/13 07:22:01;;;;;;;12.23;6.20;;;;;;;5.37;100.00;98374.78;5060110;28;20216;-70
2023/12/13 07:24:27;;;;;;;9.87;6.13;;;;;;;5.26;100.00;98371.16;5052781;28;20173;-69
2023/12/13 07:30:13;;;;;;;11.90;5.80;;;;;;;5.74;100.00;98380.16;5031340;28;20246;-70
2023/12/13 07:32:40;;;;;;;8.67;5.20;;;;;;;5.60;100.00;98388.69;5044693;28;20602;-71
2023/12/13 07:35:06;;;;;;;7.20;5.80;;;;;;;5.63;100.00;98386.75;5066736;28;20205;-70
2023/12/13 07:37:31;;;;;;;9.67;6.93;;;;;;;5.66;100.00;98386.56;5054171;28;20311;-68
2023/12/13 07:39:56;;;;;;;11.40;7.27;;;;;;;5.71;100.00;98388.03;5054921;28;20335;-70
2023/12/13 07:42:22;;;;;;;10.87;7.60;;;;;;;5.73;100.00;98389.56;5056722;28;20285;-71
2023/12/13 07:44:47;;;;;;;11.27;8.23;;;;;;;5.72;100.00;98387.91;5056949;28;20240;-70
2023/12/13 07:47:12;;;;;;;11.40;8.77;;;;;;;5.91;100.00;98381.66;5057487;28;20212;-69
2023/12/13 07:49:38;;;;;;;16.10;9.70;;;;;;;5.97;100.00;98379.53;5052151;28;20279;-68
2023/12/13 07:52:06;;;;;;;13.00;9.67;;;;;;;5.98;100.00;98380.38;5043060;28;20221;-69
2023/12/13 07:54:32;;;;;;;13.03;9.37;;;;;;;5.97;100.00;98381.28;5067236;28;20244;-68
2023/12/13 07:56:57;;;;;;;13.30;9.57;;;;;;;6.02;100.00;98381.03;5051692;28;20177;-67
2023/12/13 07:59:22;;;;;;;14.30;8.60;;;;;;;6.12;100.00;98379.53;5051202;28;20261;-70
2023/12/13 08:01:48;;;;;;;11.43;7.83;;;;;;;5.97;100.00;98377.00;5055366;28;20216;-68
2023/12/13 08:04:14;;;;;;;9.60;7.70;;;;;;;5.89;100.00;98376.66;5059910;28;20208;-70
2023/12/13 08:06:39;;;;;;;10.80;7.73;;;;;;;5.87;100.00;98386.16;5069837;28;20314;-69
2023/12/13 08:09:09;;;;;;;12.27;8.03;;;;;;;5.95;100.00;98380.56;5064721;28;20190;-70
2023/12/13 08:11:34;;;;;;;10.57;7.57;;;;;;;5.88;100.00;98392.06;5054478;28;20224;-70
2023/12/13 08:13:59;;;;;;;10.93;8.47;;;;;;;5.94;100.00;98381.47;5058345;28;20568;-71
2023/12/13 08:16:24;;;;;;;12.97;8.57;;;;;;;5.98;100.00;98385.47;5054249;28;20671;-69
2023/12/13 08:18:50;;;;;;;10.20;8.90;;;;;;;6.06;100.00;98379.91;5062474;28;20262;-70
2023/12/13 08:21:15;;;;;;;11.30;7.17;;;;;;;6.02;100.00;98379.28;5051128;28;20692;-69
2023/12/13 08:23:41;;;;;;;10.10;7.20;;;;;;;6.17;100.00;98384.34;5063681;28;20230;-70
2023/12/13 08:26:06;;;;;;;10.73;6.93;;;;;;;6.22;100.00;98379.75;5062134;28;20232;-69
2023/12/13 08:28:31;;;;;;;7.67;5.03;;;;;;;6.24;100.00;98371.09;5068054;28;20185;-68
2023/12/13 08:30:57;;;;;;;15.20;5.00;;;;;;;6.45;100.00;98373.16;5041970;27;20310;-69
2023/12/13 08:33:22;;;;;;;13.87;5.10;;;;;;;6.49;100.00;98374.59;5076805;28;20192;-68
2023/12/13 08:35:47;;;;;;;12.73;2.97;;;;;;;6.63;100.00;98378.78;5068943;28;20188;-70
2023/12/13 08:38:12;;;;;;;9.20;3.33;;;;;;;6.76;100.00;98373.69;5069126;28;20190;-68
2023/12/13 08:40:39;;;;;;;7.47;3.47;;;;;;;6.91;100.00;98382.09;5059278;28;20774;-70
2023/12/13 08:43:04;;;;;;;6.17;3.20;;;;;;;6.97;100.00;98380.84;5076266;28;20177;-70
2023/12/13 08:45:29;;;;;;;7.17;3.00;;;;;;;7.02;100.00;98377.06;5061478;28;20548;-71
2023/12/13 08:47:54;;;;;;;8.63;3.30;;;;;;;7.09;100.00;98382.56;5064760;28;20189;-69
2023/12/13 08:50:20;;;;;;;8.87;3.00;;;;;;;7.13;100.00;98375.50;5054111;28;20174;-69
2023/12/13 08:52:45;;;;;;;7.77;3.23;;;;;;;7.20;100.00;98384.41;5064271;28;20578;-71
2023/12/13 08:55:10;;;;;;;7.40;3.50;;;;;;;7.22;100.00;98383.38;5051143;28;20188;-71
2023/12/13 08:57:37;;;;;;;5.53;2.67;;;;;;;7.20;100.00;98385.22;5051367;28;20185;-71
2023/12/13 09:00:05;;;;;;;8.10;2.97;;;;;;;7.38;100.00;98385.72;5066174;28;20174;-72
2023/12/13 09:02:32;;;;;;;4.80;2.47;;;;;;;7.48;100.00;98385.06;5039000;28;20244;-69
2023/12/13 09:04:57;;;;;;;7.13;2.70;;;;;;;7.33;100.00;98380.09;5056019;28;20205;-69
2023/12/13 09:07:22;;;;;;;7.27;2.67;;;;;;;7.33;100.00;98384.38;5049910;28;20267;-69
2023/12/13 09:09:47;;;;;;;4.67;2.60;;;;;;;7.43;100.00;98385.41;5050152;28;20186;-69
2023/12/13 09:12:13;;;;;;;4.67;2.33;;;;;;;7.43;100.00;98386.22;5056416;28;20829;-70
2023/12/13 09:14:40;;;;;;;8.47;3.00;;;;;;;7.58;100.00;98392.00;5061450;28;20188;-68
2023/12/13 09:17:05;;;;;;;6.37;3.27;;;;;;;7.71;100.00;98389.38;5066421;28;20180;-70
2023/12/13 09:19:30;;;;;;;9.53;2.73;;;;;;;7.69;100.00;98391.25;5065661;28;20224;-69
2023/12/13 09:21:56;;;;;;;6.03;2.80;;;;;;;7.91;100.00;98390.56;5070512;28;20223;-69
2023/12/13 09:24:21;;;;;;;8.33;3.03;;;;;;;8.03;100.00;98390.63;5065461;28;20543;-71
2023/12/13 09:26:47;;;;;;;7.13;2.93;;;;;;;8.25;100.00;98395.03;5062930;28;20200;-70
2023/12/13 09:29:13;;;;;;;7.37;2.73;;;;;;;8.35;100.00;98393.41;5063378;28;20853;-70
2023/12/13 09:31:38;;;;;;;3.97;2.50;;;;;;;8.49;100.00;98389.06;5066365;28;20258;-69
2023/12/13 09:34:03;;;;;;;7.50;2.40;;;;;;;8.45;100.00;98382.50;5066330;28;20528;-69
2023/12/13 09:36:29;;;;;;;5.63;2.73;;;;;;;8.67;100.00;98380.03;5060909;28;20232;-70
2023/12/13 09:38:54;;;;;;;6.53;3.00;;;;;;;8.78;100.00;98376.66;5064631;28;20208;-69
2023/12/13 09:41:30;;;;;;;7.33;2.27;;;;;;;8.92;100.00;98375.63;5061317;28;20227;-69
2023/12/13 09:43:57;;;;;;;6.07;2.87;;;;;;;8.80;100.00;98374.78;5061268;28;20246;-68
2023/12/13 09:46:24;;;;;;;6.57;3.17;;;;;;;8.83;100.00;98377.13;5087698;28;20664;-68
2023/12/13 09:48:50;;;;;;;5.83;2.43;;;;;;;8.82;100.00;98384.91;5060072;28;20190;-70
2023/12/13 09:51:19;;;;;;;6.10;3.20;;;;;;;8.85;100.00;98388.06;5052988;28;20229;-70
2023/12/13 09:53:47;;;;;;;10.27;3.23;;;;;;;8.70;100.00;98386.66;5061342;28;20177;-69
2023/12/13 09:56:13;;;;;;;4.60;3.00;;;;;;;8.71;100.00;98385.75;5070522;28;20196;-69
2023/12/13 09:58:39;;;;;;;6.93;3.20;;;;;;;8.87;100.00;98396.47;5069522;28;20185;-69
2023/12/13 10:01:10;;;;;;;6.47;3.47;;;;;;;9.55;100.00;98397.41;5054276;28;20333;-70
2023/12/13 10:03:38;;;;;;;5.40;3.30;;;;;;;10.03;100.00;98389.34;5053775;28;20200;-70
2023/12/13 10:06:05;;;;;;;5.10;3.33;;;;;;;10.07;100.00;98385.59;5072270;28;20572;-70
2023/12/13 10:08:30;;;;;;;3.47;1.33;;;;;;;9.85;100.00;98389.06;5071682;28;20184;-69
2023/12/13 10:10:56;;;;;;;3.20;1.70;;;;;;;9.56;100.00;98386.19;5065413;28;20303;-69
2023/12/13 10:13:22;;;;;;;4.00;1.50;;;;;;;9.55;100.00;98382.81;5076406;28;20546;-69
2023/12/13 10:15:47;;;;;;;2.77;1.40;;;;;;;9.46;100.00;98374.06;5062595;28;20549;-69
2023/12/13 10:18:12;;;;;;;3.53;1.60;;;;;;;9.35;100.00;98385.19;5061879;28;20174;-69
2023/12/13 10:20:38;;;;;;;10.50;1.27;;;;;;;9.20;100.00;98379.47;5066875;28;20235;-69
2023/12/13 10:23:05;;;;;;;3.07;1.40;;;;;;;9.17;100.00;98376.31;5069873;28;20643;-69
2023/12/13 10:25:30;;;;;;;2.83;1.20;;;;;;;9.15;100.00;98379.03;5068703;28;20763;-71
2023/12/13 10:27:56;;;;;;;1.17;1.00;;;;;;;9.22;100.00;98381.13;5055159;28;20307;-69
2023/12/13 10:30:22;;;;;;;2.90;1.20;;;;;;;9.26;100.00;98380.75;5047512;28;20268;-69
2023/12/13 10:32:47;;;;;;;2.97;1.20;;;;;;;9.40;100.00;98384.81;5067019;28;20211;-69
2023/12/13 10:35:13;;;;;;;2.63;1.20;;;;;;;9.39;100.00;98382.38;5064127;28;20859;-69
2023/12/13 10:37:40;;;;;;;2.97;1.50;;;;;;;9.38;100.00;98384.13;5060103;28;20192;-69
2023/12/13 10:40:09;;;;;;;2.90;1.40;;;;;;;9.24;100.00;98376.66;5053471;28;20220;-68
2023/12/13 10:42:37;;;;;;;2.10;1.40;;;;;;;9.30;100.00;98378.75;5051332;28;20185;-68
2023/12/13 10:45:04;;;;;;;4.40;1.40;;;;;;;9.44;100.00;98387.94;5060060;28;20173;-67
2023/12/13 10:47:35;;;;;;;4.47;1.37;;;;;;;9.49;100.00;98386.69;5061495;28;20259;-67
2023/12/13 10:50:02;;;;;;;2.87;1.17;;;;;;;9.49;100.00;98384.09;5066397;28;20172;-66
2023/12/13 10:52:30;;;;;;;3.63;1.80;;;;;;;9.46;100.00;98386.09;5029436;28;20659;-67
2023/12/13 10:54:55;;;;;;;1.93;1.10;;;;;;;9.27;100.00;98386.72;5071217;28;20180;-68
2023/12/13 10:57:21;;;;;;;2.60;1.17;;;;;;;9.39;100.00;98383.19;5071383;28;20689;-69
2023/12/13 10:59:48;;;;;;;2.77;1.10;;;;;;;9.28;100.00;98383.19;5072324;28;20173;-68
2023/12/13 11:02:18;;;;;;;4.30;1.70;;;;;;;9.33;100.00;98388.81;5061617;28;20618;-70
2023/12/13 11:04:43;;;;;;;2.50;1.30;;;;;;;9.44;100.00;98388.78;5070014;28;20180;-70
2023/12/13 11:07:09;;;;;;;1.90;0.90;;;;;;;9.46;100.00;98383.53;5061636;28;20213;-67
2023/12/13 11:09:35;;;;;;;3.50;1.47;;;;;;;9.26;100.00;98375.59;5064294;28;20227;-66
2023/12/13 11:12:10;;;;;;;2.67;1.20;;;;;;;9.26;100.00;98380.75;5054930;28;20221;-66
2023/12/13 11:14:36;;;;;;;2.50;1.10;;;;;;;9.31;100.00;98378.63;5056566;28;20177;-66
2023/12/13 11:17:01;;;;;;;3.67;1.37;;;;;;;9.34;100.00;98375.84;5056071;28;20181;-66
2023/12/13 11:19:28;;;;;;;2.20;1.13;;;;;;;9.34;100.00;98373.28;5060513;28;20631;-65
2023/12/13 11:21:56;;;;;;;2.87;1.20;;;;;;;9.40;100.00;98377.09;5064066;27;20575;-65
2023/12/13 11:24:26;;;;;;;1.50;0.83;;;;;;;9.16;100.00;98372.13;5064503;28;20187;-66
2023/12/13 11:26:58;;;;;;;2.90;1.00;;;;;;;9.09;100.00;98366.66;5064141;28;20473;-66